| time (UTC) | temp C | wind direction | speed KPH | gust KPH | rain 1hr cm | rain 24hr cm | rain mn cm | humidity % | barometer mb |
| 20260906205704 | 34 | 162 | 9.7 | 24.1 | 0.00 | 0.00 | 0.00 | 33 | 1003.3 |
| 20260906205205 | 34 | 162 | 6.4 | 14.5 | 0.00 | 0.00 | 0.00 | 32 | 1003.4 |
| 20260906204704 | 34 | 153 | 4.8 | 14.5 | 0.00 | 0.00 | 0.00 | 32 | 1003.4 |
| 20260906204204 | 34 | 113 | 8.0 | 19.3 | 0.00 | 0.00 | 0.00 | 31 | 1003.4 |
| 20260906203705 | 34 | 169 | 6.4 | 19.3 | 0.00 | 0.00 | 0.00 | 33 | 1003.5 |
| 20260906203204 | 34 | 128 | 4.8 | 19.3 | 0.00 | 0.00 | 0.00 | 33 | 1003.5 |
| 20260906202704 | 34 | 150 | 11.3 | 22.5 | 0.00 | 0.00 | 0.00 | 32 | 1003.6 |
| 20260906201704 | 33 | 139 | 1.6 | 8.0 | 0.00 | 0.00 | 0.00 | 32 | 1003.7 |
| 20260906201205 | 33 | 82 | 4.8 | 12.9 | 0.00 | 0.00 | 0.00 | 31 | 1003.7 |
| 20260906200705 | 33 | 177 | 8.0 | 19.3 | 0.00 | 0.00 | 0.00 | 32 | 1003.9 |
| 20260906200205 | 33 | 176 | 9.7 | 16.1 | 0.00 | 0.00 | 0.00 | 31 | 1003.8 |
| 20260906195705 | 33 | 193 | 6.4 | 19.3 | 0.00 | 0.00 | 0.00 | 32 | 1003.8 |
| 20260906194705 | 33 | 213 | 9.7 | 16.1 | 0.00 | 0.00 | 0.00 | 32 | 1003.8 |
| 20260906193704 | 33 | 182 | 4.8 | 12.9 | 0.00 | 0.00 | 0.00 | 34 | 1003.8 |
| 20260906193205 | 33 | 215 | 8.0 | 25.7 | 0.00 | 0.00 | 0.00 | 34 | 1003.9 |
| 20260906192704 | 33 | 238 | 4.8 | 19.3 | 0.00 | 0.00 | 0.00 | 33 | 1003.9 |
| 20260906191704 | 34 | 136 | 3.2 | 4.8 | 0.00 | 0.00 | 0.00 | 33 | 1004.1 |
| 20260906191205 | 33 | 151 | 3.2 | 8.0 | 0.00 | 0.00 | 0.00 | 33 | 1004.1 |
| 20260906190705 | 33 | 196 | 4.8 | 8.0 | 0.00 | 0.00 | 0.00 | 33 | 1004.2 |
| 20260906190204 | 33 | 197 | 4.8 | 11.3 | 0.00 | 0.00 | 0.00 | 33 | 1004.2 |
| 20260906185705 | 33 | 105 | 1.6 | 4.8 | 0.00 | 0.00 | 0.00 | 33 | 1004.3 |
| 20260906185204 | 33 | 113 | 3.2 | 9.7 | 0.00 | 0.00 | 0.00 | 33 | 1004.4 |
| 20260906184704 | 33 | 116 | 3.2 | 9.7 | 0.00 | 0.00 | 0.00 | 34 | 1004.4 |
| 20260906183704 | 32 | 165 | 3.2 | 8.0 | 0.00 | 0.00 | 0.00 | 32 | 1004.6 |
| 20260906183204 | 33 | 204 | 8.0 | 12.9 | 0.00 | 0.00 | 0.00 | 32 | 1004.7 |
| 20260906182705 | 32 | 200 | 3.2 | 8.0 | 0.00 | 0.00 | 0.00 | 33 | 1004.8 |
| 20260906182204 | 32 | 29 | 1.6 | 12.9 | 0.00 | 0.00 | 0.00 | 34 | 1004.9 |
| 20260906181205 | 32 | 38 | 4.8 | 9.7 | 0.00 | 0.00 | 0.00 | 35 | 1005.2 |
| 20260906180705 | 32 | 44 | 6.4 | 11.3 | 0.00 | 0.00 | 0.00 | 36 | 1005.3 |
| 20260906180205 | 32 | 40 | 6.4 | 11.3 | 0.00 | 0.00 | 0.00 | 35 | 1005.4 |
| 20260906175205 | 32 | 35 | 4.8 | 9.7 | 0.00 | 0.00 | 0.00 | 34 | 1005.5 |
| 20260906174204 | 32 | 219 | 3.2 | 4.8 | 0.00 | 0.00 | 0.00 | 35 | 1005.6 |
| 20260906173704 | 31 | 217 | 1.6 | 3.2 | 0.00 | 0.00 | 0.00 | 36 | 1005.7 |
| 20260906173204 | 31 | 217 | 3.2 | 4.8 | 0.00 | 0.00 | 0.00 | 37 | 1005.7 |
| 20260906172704 | 30 | 217 | 4.8 | 9.7 | 0.00 | 0.00 | 0.00 | 37 | 1005.8 |
| 20260906171704 | 30 | 227 | 4.8 | 4.8 | 0.00 | 0.00 | 0.00 | 37 | 1006.1 |
| 20260906171204 | 30 | 227 | 3.2 | 4.8 | 0.00 | 0.00 | 0.00 | 38 | 1006.1 |
| 20260906170705 | 31 | 223 | 4.8 | 8.0 | 0.00 | 0.00 | 0.00 | 37 | 1006.2 |
| 20260906170204 | 31 | 225 | 3.2 | 4.8 | 0.00 | 0.00 | 0.00 | 37 | 1006.2 |
| 20260906165704 | 31 | 225 | 1.6 | 4.8 | 0.00 | 0.00 | 0.00 | 38 | 1006.4 |
| 20260906165204 | 30 | 225 | 1.6 | 4.8 | 0.00 | 0.00 | 0.00 | 39 | 1006.4 |
| 20260906164705 | 30 | 225 | 0.0 | 3.2 | 0.00 | 0.00 | 0.00 | 40 | 1006.4 |
| 20260906164204 | 29 | 225 | 1.6 | 4.8 | 0.00 | 0.00 | 0.00 | 40 | 1006.6 |
| 20260906163705 | 29 | 225 | 3.2 | 4.8 | 0.00 | 0.00 | 0.00 | 40 | 1006.6 |
| 20260906163204 | 28 | 225 | 0.0 | 4.8 | 0.00 | 0.00 | 0.00 | 42 | 1006.6 |
| 20260906162204 | 28 | 222 | 1.6 | 4.8 | 0.00 | 0.00 | 0.00 | 43 | 1006.7 |
| 20260906161704 | 27 | 221 | 1.6 | 3.2 | 0.00 | 0.00 | 0.00 | 43 | 1006.8 |
| 20260906161204 | 27 | 221 | 3.2 | 4.8 | 0.00 | 0.00 | 0.00 | 44 | 1006.8 |
| 20260906160705 | 27 | 229 | 8.0 | 11.3 | 0.00 | 0.00 | 0.00 | 43 | 1006.7 |
| 20260906160204 | 27 | 221 | 4.8 | 8.0 | 0.00 | 0.00 | 0.00 | 44 | 1006.7 |
| 20260906155205 | 27 | 270 | 3.2 | 4.8 | 0.00 | 0.00 | 0.00 | 45 | 1006.8 |
| 20260906154704 | 26 | 250 | 3.2 | 9.7 | 0.00 | 0.00 | 0.00 | 46 | 1006.8 |
| 20260906154205 | 26 | 277 | 1.6 | 8.0 | 0.00 | 0.00 | 0.00 | 47 | 1006.8 |
| 20260906153704 | 26 | 221 | 1.6 | 9.7 | 0.00 | 0.00 | 0.00 | 48 | 1006.8 |
| 20260906153204 | 26 | 209 | 4.8 | 12.9 | 0.00 | 0.00 | 0.00 | 48 | 1006.9 |
| 20260906152704 | 25 | 223 | 4.8 | 8.0 | 0.00 | 0.00 | 0.00 | 49 | 1006.8 |
| 20260906152204 | 25 | 232 | 1.6 | 8.0 | 0.00 | 0.00 | 0.00 | 49 | 1006.8 |
| 20260906151705 | 25 | 225 | 4.8 | 9.7 | 0.00 | 0.00 | 0.00 | 49 | 1006.7 |
| 20260906151204 | 25 | 255 | 3.2 | 4.8 | 0.00 | 0.00 | 0.00 | 49 | 1006.8 |
| 20260906150204 | 24 | 250 | 3.2 | 4.8 | 0.00 | 0.00 | 0.00 | 51 | 1006.9 |
| 20260906145704 | 24 | 211 | 3.2 | 4.8 | 0.00 | 0.00 | 0.00 | 51 | 1007.0 |
| 20260906144704 | 24 | 269 | 3.2 | 4.8 | 0.00 | 0.00 | 0.00 | 52 | 1007.1 |
| 20260906144204 | 23 | 284 | 4.8 | 9.7 | 0.00 | 0.00 | 0.00 | 52 | 1007.1 |
| 20260906143704 | 23 | 224 | 3.2 | 4.8 | 0.00 | 0.00 | 0.00 | 53 | 1007.1 |
| 20260906143205 | 23 | 223 | 4.8 | 11.3 | 0.00 | 0.00 | 0.00 | 53 | 1007.2 |
| 20260906142704 | 23 | 210 | 8.0 | 9.7 | 0.00 | 0.00 | 0.00 | 53 | 1007.2 |
| 20260906142203 | 23 | 176 | 3.2 | 9.7 | 0.00 | 0.00 | 0.00 | 53 | 1007.2 |
| 20260906141704 | 23 | 217 | 1.6 | 4.8 | 0.00 | 0.00 | 0.00 | 53 | 1007.2 |
| 20260906141204 | 23 | 217 | 3.2 | 8.0 | 0.00 | 0.00 | 0.00 | 53 | 1007.3 |
| 20260906140704 | 23 | 205 | 1.6 | 3.2 | 0.00 | 0.00 | 0.00 | 53 | 1007.4 |
| 20260906140204 | 23 | 205 | 1.6 | 3.2 | 0.00 | 0.00 | 0.00 | 53 | 1007.3 |
| 20260906135704 | 22 | 205 | 0.0 | 1.6 | 0.00 | 0.00 | 0.00 | 55 | 1007.3 |
| 20260906134704 | 22 | 205 | 1.6 | 4.8 | 0.00 | 0.00 | 0.00 | 56 | 1007.3 |
| 20260906134204 | 22 | 205 | 3.2 | 4.8 | 0.00 | 0.00 | 0.00 | 57 | 1007.4 |
| 20260906133704 | 22 | 204 | 1.6 | 4.8 | 0.00 | 0.00 | 0.00 | 58 | 1007.4 |
| 20260906133203 | 21 | 212 | 3.2 | 9.7 | 0.00 | 0.00 | 0.00 | 58 | 1007.5 |
| 20260906132705 | 21 | 219 | 4.8 | 11.3 | 0.00 | 0.00 | 0.00 | 58 | 1007.6 |
| 20260906132204 | 21 | 227 | 8.0 | 9.7 | 0.00 | 0.00 | 0.00 | 58 | 1007.6 |
| 20260906131704 | 21 | 232 | 3.2 | 4.8 | 0.00 | 0.00 | 0.00 | 60 | 1007.7 |
| 20260906131204 | 21 | 232 | 0.0 | 1.6 | 0.00 | 0.00 | 0.00 | 61 | 1007.7 |
| 20260906130704 | 20 | 232 | 0.0 | 0.0 | 0.00 | 0.00 | 0.00 | 62 | 1007.7 |
| 20260906130204 | 20 | 232 | 1.6 | 3.2 | 0.00 | 0.00 | 0.00 | 62 | 1007.6 |
| 20260906125703 | 20 | 232 | 3.2 | 4.8 | 0.00 | 0.00 | 0.00 | 62 | 1007.6 |
| 20260906124704 | 20 | 232 | 1.6 | 3.2 | 0.00 | 0.00 | 0.00 | 63 | 1007.6 |
| 20260906124204 | 19 | 232 | 0.0 | 4.8 | 0.00 | 0.00 | 0.00 | 64 | 1007.5 |
| 20260906122204 | 20 | 233 | 1.6 | 3.2 | 0.00 | 0.00 | 0.00 | 61 | 1007.4 |
| 20260906121704 | 20 | 233 | 0.0 | 0.0 | 0.00 | 0.00 | 0.00 | 60 | 1007.3 |
| 20260906121204 | 20 | 233 | 0.0 | 1.6 | 0.00 | 0.00 | 0.00 | 59 | 1007.4 |
| 20260906120203 | 21 | 233 | 1.6 | 4.8 | 0.00 | 0.00 | 0.00 | 58 | 1007.5 |
| 20260906115204 | 21 | 233 | 3.2 | 4.8 | 0.00 | 0.00 | 0.00 | 58 | 1007.4 |
| 20260906114704 | 21 | 233 | 1.6 | 4.8 | 0.00 | 0.00 | 0.00 | 58 | 1007.4 |
| 20260906114204 | 21 | 233 | 1.6 | 4.8 | 0.00 | 0.00 | 0.00 | 57 | 1007.3 |
| 20260906113204 | 21 | 233 | 0.0 | 3.2 | 0.00 | 0.00 | 0.00 | 55 | 1007.3 |
| 20260906112704 | 22 | 233 | 3.2 | 4.8 | 0.00 | 0.00 | 0.00 | 54 | 1007.3 |
| 20260906112204 | 22 | 233 | 0.0 | 3.2 | 0.00 | 0.00 | 0.00 | 53 | 1007.3 |
| 20260906111704 | 22 | 233 | 1.6 | 4.8 | 0.00 | 0.00 | 0.00 | 53 | 1007.3 |
| 20260906111204 | 22 | 232 | 1.6 | 4.8 | 0.00 | 0.00 | 0.00 | 53 | 1007.2 |
| 20260906110704 | 22 | 242 | 3.2 | 4.8 | 0.00 | 0.00 | 0.00 | 53 | 1007.3 |
| 20260906110204 | 22 | 243 | 1.6 | 3.2 | 0.00 | 0.00 | 0.00 | 53 | 1007.2 |
| 20260906105704 | 22 | 243 | 1.6 | 4.8 | 0.00 | 0.00 | 0.00 | 52 | 1007.1 |
| 20260906105204 | 22 | 243 | 1.6 | 9.7 | 0.00 | 0.00 | 0.00 | 52 | 1007.1 |
| 20260906104704 | 22 | 234 | 1.6 | 4.8 | 0.00 | 0.00 | 0.00 | 51 | 1007.0 |
| 20260906104204 | 22 | 168 | 1.6 | 8.0 | 0.00 | 0.00 | 0.00 | 51 | 1007.0 |
| 20260906103704 | 22 | 223 | 4.8 | 9.7 | 0.00 | 0.00 | 0.00 | 51 | 1006.9 |
| 20260906103204 | 22 | 186 | 1.6 | 4.8 | 0.00 | 0.00 | 0.00 | 52 | 1006.8 |
| 20260906102704 | 22 | 186 | 3.2 | 11.3 | 0.00 | 0.00 | 0.00 | 51 | 1006.8 |
| 20260906102203 | 22 | 221 | 4.8 | 9.7 | 0.00 | 0.00 | 0.00 | 51 | 1006.9 |
| 20260906101705 | 23 | 257 | 6.4 | 12.9 | 0.00 | 0.00 | 0.00 | 51 | 1006.9 |
| 20260906101206 | 23 | 264 | 6.4 | 11.3 | 0.00 | 0.00 | 0.00 | 50 | 1006.9 |
| 20260906100706 | 23 | 266 | 4.8 | 9.7 | 0.00 | 0.00 | 0.00 | 49 | 1006.8 |
| 20260906095706 | 23 | 186 | 3.2 | 4.8 | 0.00 | 0.00 | 0.00 | 49 | 1006.5 |
| 20260906095205 | 23 | 182 | 0.0 | 9.7 | 0.00 | 0.00 | 0.00 | 49 | 1006.4 |
| 20260906094705 | 23 | 179 | 3.2 | 14.5 | 0.00 | 0.00 | 0.00 | 49 | 1006.4 |
| 20260906093705 | 23 | 267 | 3.2 | 11.3 | 0.00 | 0.00 | 0.00 | 50 | 1006.4 |
| 20260906093206 | 23 | 279 | 4.8 | 9.7 | 0.00 | 0.00 | 0.00 | 50 | 1006.3 |
| 20260906092706 | 23 | 303 | 3.2 | 4.8 | 0.00 | 0.00 | 0.00 | 51 | 1006.4 |
| 20260906092206 | 23 | 304 | 1.6 | 11.3 | 0.00 | 0.00 | 0.00 | 50 | 1006.4 |
| 20260906091706 | 23 | 342 | 1.6 | 9.7 | 0.00 | 0.00 | 0.00 | 49 | 1006.4 |
| 20260906091205 | 24 | 314 | 1.6 | 12.9 | 0.00 | 0.00 | 0.00 | 46 | 1006.2 |
| 20260906090205 | 24 | 176 | 3.2 | 11.3 | 0.00 | 0.00 | 0.00 | 46 | 1006.0 |
| 20260906085705 | 24 | 215 | 11.3 | 29.0 | 0.00 | 0.00 | 0.00 | 47 | 1005.9 |
| 20260906085206 | 24 | 192 | 8.0 | 22.5 | 0.00 | 0.00 | 0.00 | 48 | 1005.8 |
| 20260906084706 | 24 | 185 | 9.7 | 29.0 | 0.00 | 0.00 | 0.00 | 48 | 1005.6 |
| 20260906084206 | 24 | 189 | 12.9 | 29.0 | 0.00 | 0.00 | 0.00 | 49 | 1005.3 |
| 20260906083706 | 24 | 177 | 14.5 | 27.4 | 0.00 | 0.00 | 0.00 | 49 | 1005.2 |
| 20260906083205 | 23 | 176 | 16.1 | 27.4 | 0.00 | 0.00 | 0.00 | 50 | 1005.1 |
| 20260906081706 | 23 | 193 | 12.9 | 22.5 | 0.00 | 0.00 | 0.00 | 52 | 1005.2 |
| 20260906081206 | 23 | 173 | 11.3 | 32.2 | 0.00 | 0.00 | 0.00 | 52 | 1005.3 |
| 20260906080705 | 24 | 167 | 9.7 | 24.1 | 0.00 | 0.00 | 0.00 | 52 | 1005.4 |
| 20260906080205 | 24 | 186 | 11.3 | 22.5 | 0.00 | 0.00 | 0.00 | 51 | 1005.4 |
| 20260906075705 | 24 | 181 | 12.9 | 25.7 | 0.00 | 0.00 | 0.00 | 50 | 1005.5 |
| 20260906075205 | 24 | 188 | 16.1 | 29.0 | 0.00 | 0.00 | 0.00 | 50 | 1005.5 |
| 20260906074705 | 24 | 198 | 19.3 | 32.2 | 0.00 | 0.00 | 0.00 | 50 | 1005.5 |
| 20260906074206 | 25 | 188 | 16.1 | 29.0 | 0.00 | 0.00 | 0.00 | 50 | 1005.6 |
| 20260906073705 | 25 | 195 | 17.7 | 32.2 | 0.00 | 0.00 | 0.00 | 49 | 1005.6 |
| 20260906073205 | 25 | 177 | 11.3 | 25.7 | 0.00 | 0.00 | 0.00 | 47 | 1005.7 |
| 20260906072705 | 25 | 185 | 9.7 | 20.9 | 0.00 | 0.00 | 0.00 | 45 | 1005.8 |
| 20260906072206 | 26 | 187 | 8.0 | 29.0 | 0.00 | 0.00 | 0.00 | 44 | 1005.9 |
| 20260906071705 | 26 | 175 | 6.4 | 16.1 | 0.00 | 0.00 | 0.00 | 44 | 1005.9 |
| 20260906070706 | 26 | 179 | 11.3 | 24.1 | 0.00 | 0.00 | 0.00 | 43 | 1005.7 |
| 20260906070205 | 26 | 170 | 9.7 | 20.9 | 0.00 | 0.00 | 0.00 | 45 | 1005.5 |
| 20260906064705 | 25 | 202 | 11.3 | 19.3 | 0.00 | 0.00 | 0.00 | 46 | 1005.3 |
| 20260906064205 | 26 | 192 | 9.7 | 19.3 | 0.00 | 0.00 | 0.00 | 46 | 1005.3 |
| 20260906063706 | 26 | 196 | 4.8 | 19.3 | 0.00 | 0.00 | 0.00 | 45 | 1005.5 |
| 20260906062705 | 26 | 204 | 8.0 | 16.1 | 0.00 | 0.00 | 0.00 | 45 | 1005.5 |
| 20260906062206 | 26 | 188 | 14.5 | 25.7 | 0.00 | 0.00 | 0.00 | 45 | 1005.5 |
| 20260906061705 | 26 | 208 | 12.9 | 22.5 | 0.00 | 0.00 | 0.00 | 43 | 1005.4 |
| 20260906061206 | 26 | 196 | 9.7 | 19.3 | 0.00 | 0.00 | 0.00 | 43 | 1005.3 |
| 20260906060206 | 26 | 183 | 8.0 | 19.3 | 0.00 | 0.00 | 0.00 | 43 | 1005.2 |
| 20260906055706 | 26 | 158 | 8.0 | 29.0 | 0.00 | 0.00 | 0.00 | 43 | 1005.1 |
| 20260906055205 | 26 | 153 | 11.3 | 20.9 | 0.00 | 0.00 | 0.00 | 44 | 1005.1 |
| 20260906054705 | 26 | 165 | 9.7 | 20.9 | 0.00 | 0.00 | 0.00 | 45 | 1005.2 |
| 20260906053705 | 26 | 176 | 6.4 | 16.1 | 0.00 | 0.00 | 0.00 | 46 | 1005.0 |
| 20260906053205 | 26 | 148 | 4.8 | 16.1 | 0.00 | 0.00 | 0.00 | 46 | 1004.9 |
| 20260906051206 | 26 | 153 | 8.0 | 19.3 | 0.00 | 0.00 | 0.00 | 48 | 1004.7 |
| 20260906050706 | 25 | 138 | 8.0 | 20.9 | 0.00 | 0.00 | 0.00 | 48 | 1004.8 |
| 20260906050206 | 25 | 133 | 6.4 | 11.3 | 0.00 | 0.00 | 0.00 | 49 | 1004.9 |
| 20260906045705 | 25 | 158 | 4.8 | 19.3 | 0.00 | 0.00 | 0.00 | 50 | 1005.2 |
| 20260906045205 | 25 | 134 | 4.8 | 19.3 | 0.00 | 0.00 | 0.00 | 50 | 1005.3 |
| 20260906044705 | 25 | 143 | 9.7 | 19.3 | 0.00 | 0.00 | 0.00 | 51 | 1005.4 |
| 20260906043706 | 25 | 117 | 6.4 | 19.3 | 0.00 | 0.00 | 0.00 | 52 | 1005.6 |
| 20260906042705 | 25 | 132 | 8.0 | 19.3 | 0.00 | 0.00 | 0.00 | 51 | 1005.5 |
| 20260906042206 | 25 | 195 | 8.0 | 22.5 | 0.00 | 0.00 | 0.00 | 53 | 1005.5 |
| 20260906041705 | 25 | 173 | 4.8 | 20.9 | 0.00 | 0.00 | 0.00 | 54 | 1005.5 |
| 20260906041205 | 25 | 158 | 6.4 | 19.3 | 0.00 | 0.00 | 0.00 | 54 | 1005.5 |
| 20260906040705 | 25 | 158 | 8.0 | 19.3 | 0.00 | 0.00 | 0.00 | 55 | 1005.4 |
| 20260906040205 | 25 | 146 | 9.7 | 19.3 | 0.00 | 0.00 | 0.00 | 56 | 1005.5 |
| 20260906035205 | 25 | 162 | 9.7 | 22.5 | 0.00 | 0.00 | 0.00 | 58 | 1005.5 |
| 20260906034706 | 25 | 156 | 8.0 | 24.1 | 0.00 | 0.00 | 0.00 | 59 | 1005.7 |
| 20260906034205 | 25 | 155 | 8.0 | 25.7 | 0.00 | 0.00 | 0.00 | 60 | 1005.9 |
| 20260906033705 | 25 | 150 | 8.0 | 19.3 | 0.00 | 0.00 | 0.00 | 60 | 1005.7 |
| 20260906033205 | 25 | 161 | 3.2 | 19.3 | 0.00 | 0.00 | 0.00 | 60 | 1005.6 |
| 20260906032205 | 25 | 116 | 4.8 | 16.1 | 0.00 | 0.00 | 0.00 | 58 | 1005.5 |
| 20260906031705 | 25 | 157 | 8.0 | 20.9 | 0.00 | 0.00 | 0.00 | 55 | 1005.5 |
| 20260906031205 | 26 | 163 | 4.8 | 16.1 | 0.00 | 0.00 | 0.00 | 52 | 1005.7 |
| 20260906030705 | 26 | 174 | 8.0 | 12.9 | 0.00 | 0.00 | 0.00 | 50 | 1005.7 |
| 20260906030205 | 26 | 187 | 9.7 | 29.0 | 0.00 | 0.00 | 0.00 | 49 | 1006.0 |
| 20260906025706 | 26 | 145 | 8.0 | 19.3 | 0.00 | 0.00 | 0.00 | 49 | 1006.1 |
| 20260906025205 | 27 | 132 | 8.0 | 24.1 | 0.00 | 0.00 | 0.00 | 50 | 1006.3 |
| 20260906024705 | 27 | 123 | 3.2 | 19.3 | 0.00 | 0.00 | 0.00 | 52 | 1006.2 |
| 20260906024205 | 27 | 122 | 4.8 | 9.7 | 0.00 | 0.00 | 0.00 | 58 | 1006.2 |
| 20260906023705 | 27 | 173 | 4.8 | 14.5 | 0.00 | 0.00 | 0.00 | 60 | 1006.2 |
| 20260906023205 | 27 | 166 | 3.2 | 8.0 | 0.00 | 0.00 | 0.00 | 60 | 1006.1 |
| 20260906022705 | 27 | 140 | 3.2 | 9.7 | 0.00 | 0.00 | 0.00 | 60 | 1005.8 |
| 20260906021705 | 27 | 138 | 3.2 | 4.8 | 0.00 | 0.00 | 0.00 | 59 | 1005.4 |
| 20260906020705 | 27 | 123 | 1.6 | 3.2 | 0.00 | 0.00 | 0.00 | 58 | 1004.8 |
| 20260906015705 | 27 | 123 | 0.0 | 3.2 | 0.00 | 0.00 | 0.00 | 56 | 1004.4 |
| 20260906015205 | 28 | 123 | 1.6 | 3.2 | 0.00 | 0.00 | 0.00 | 56 | 1004.2 |
| 20260906014705 | 28 | 123 | 0.0 | 1.6 | 0.00 | 0.00 | 0.00 | 54 | 1004.3 |
| 20260906014205 | 28 | 123 | 0.0 | 3.2 | 0.00 | 0.00 | 0.00 | 54 | 1004.2 |
| 20260906013705 | 28 | 123 | 1.6 | 3.2 | 0.00 | 0.00 | 0.00 | 53 | 1004.0 |
| 20260906013205 | 28 | 123 | 0.0 | 1.6 | 0.00 | 0.00 | 0.00 | 53 | 1004.1 |
| 20260906012704 | 28 | 123 | 0.0 | 3.2 | 0.00 | 0.00 | 0.00 | 53 | 1004.0 |
| 20260906011705 | 29 | 123 | 0.0 | 1.6 | 0.00 | 0.00 | 0.00 | 51 | 1004.0 |
| 20260906011205 | 29 | 123 | 0.0 | 3.2 | 0.00 | 0.00 | 0.00 | 51 | 1004.0 |
| 20260906010705 | 29 | 123 | 1.6 | 3.2 | 0.00 | 0.00 | 0.00 | 50 | 1003.9 |
| 20260906010205 | 30 | 123 | 1.6 | 4.8 | 0.00 | 0.00 | 0.00 | 50 | 1003.8 |
| 20260906005205 | 30 | 123 | 3.2 | 4.8 | 0.00 | 0.00 | 0.00 | 49 | 1003.8 |
| 20260906004705 | 30 | 123 | 1.6 | 4.8 | 0.00 | 0.00 | 0.00 | 48 | 1004.0 |
| 20260906004205 | 30 | 100 | 3.2 | 11.3 | 0.00 | 0.00 | 0.00 | 48 | 1004.1 |
| 20260906003705 | 30 | 148 | 4.8 | 11.3 | 0.00 | 0.00 | 0.00 | 47 | 1004.1 |
| 20260906003205 | 30 | 117 | 3.2 | 9.7 | 0.00 | 0.00 | 0.00 | 47 | 1004.0 |
| 20260906002705 | 31 | 136 | 3.2 | 11.3 | 0.00 | 0.00 | 0.00 | 46 | 1003.9 |
| 20260906002205 | 31 | 122 | 1.6 | 9.7 | 0.00 | 0.00 | 0.00 | 46 | 1003.9 |
| 20260906001705 | 31 | 181 | 4.8 | 9.7 | 0.00 | 0.00 | 0.00 | 46 | 1003.9 |
| 20260906001205 | 31 | 142 | 4.8 | 11.3 | 0.00 | 0.00 | 0.00 | 46 | 1003.8 |
| 20260906000705 | 31 | 134 | 4.8 | 11.3 | 0.00 | 0.00 | 0.00 | 46 | 1003.7 |
| 20260905235205 | 31 | 46 | 3.2 | 11.3 | 0.00 | 0.00 | 0.00 | 45 | 1003.7 |
| 20260905234205 | 31 | 81 | 3.2 | 11.3 | 0.00 | 0.00 | 0.00 | 45 | 1003.7 |
| 20260905233704 | 31 | 141 | 6.4 | 19.3 | 0.00 | 0.00 | 0.00 | 44 | 1003.6 |
| 20260905233205 | 31 | 140 | 8.0 | 19.3 | 0.00 | 0.00 | 0.00 | 44 | 1003.6 |
| 20260905232705 | 31 | 118 | 9.7 | 14.5 | 0.00 | 0.00 | 0.00 | 44 | 1003.5 |
| 20260905231205 | 31 | 134 | 1.6 | 11.3 | 0.00 | 0.00 | 0.00 | 45 | 1003.3 |
| 20260905230705 | 31 | 65 | 4.8 | 11.3 | 0.00 | 0.00 | 0.00 | 45 | 1003.2 |
| 20260905230205 | 31 | 149 | 8.0 | 16.1 | 0.00 | 0.00 | 0.00 | 44 | 1003.3 |
| 20260905225705 | 31 | 146 | 8.0 | 20.9 | 0.00 | 0.00 | 0.00 | 44 | 1003.3 |
| 20260905225204 | 31 | 142 | 8.0 | 19.3 | 0.00 | 0.00 | 0.00 | 43 | 1003.2 |
| 20260905224705 | 31 | 126 | 8.0 | 25.7 | 0.00 | 0.00 | 0.00 | 43 | 1003.3 |
| 20260905224205 | 31 | 117 | 8.0 | 16.1 | 0.00 | 0.00 | 0.00 | 43 | 1003.4 |
| 20260905223705 | 31 | 124 | 6.4 | 19.3 | 0.00 | 0.00 | 0.00 | 42 | 1003.2 |
| 20260905223205 | 31 | 120 | 11.3 | 29.0 | 0.00 | 0.00 | 0.00 | 40 | 1003.2 |
| 20260905222704 | 32 | 146 | 11.3 | 27.4 | 0.00 | 0.00 | 0.00 | 40 | 1003.3 |
| 20260905221704 | 31 | 107 | 6.4 | 19.3 | 0.00 | 0.00 | 0.00 | 42 | 1003.4 |
| 20260905221205 | 31 | 114 | 9.7 | 19.3 | 0.00 | 0.00 | 0.00 | 41 | 1003.4 |
| 20260905220204 | 30 | 101 | 9.7 | 20.9 | 0.00 | 0.00 | 0.00 | 44 | 1003.6 |
| 20260905215704 | 29 | 71 | 8.0 | 19.3 | 0.00 | 0.00 | 0.00 | 48 | 1003.7 |
| 20260905215205 | 28 | 77 | 14.5 | 25.7 | 0.00 | 0.00 | 0.00 | 48 | 1003.9 |
| 20260905214705 | 28 | 72 | 14.5 | 25.7 | 0.00 | 0.00 | 0.00 | 49 | 1003.9 |
| 20260905214204 | 28 | 82 | 12.9 | 27.4 | 0.00 | 0.00 | 0.00 | 48 | 1003.9 |
| 20260905213704 | 28 | 77 | 14.5 | 22.5 | 0.00 | 0.00 | 0.00 | 47 | 1004.1 |
| 20260905213204 | 29 | 98 | 11.3 | 37.0 | 0.00 | 0.00 | 0.00 | 44 | 1004.0 |
| 20260905212705 | 30 | 88 | 20.9 | 37.0 | 0.00 | 0.00 | 0.00 | 41 | 1004.2 |
| 20260905212205 | 31 | 70 | 22.5 | 48.3 | 0.00 | 0.00 | 0.00 | 38 | 1004.2 |
| 20260905211705 | 35 | 65 | 22.5 | 38.6 | 0.00 | 0.00 | 0.00 | 31 | 1004.1 |
| 20260905211205 | 35 | 16 | 14.5 | 29.0 | 0.00 | 0.00 | 0.00 | 23 | 1003.5 |
| 20260905210705 | 35 | 27 | 14.5 | 32.2 | 0.00 | 0.00 | 0.00 | 23 | 1003.2 |
| 20260905210205 | 35 | 18 | 11.3 | 22.5 | 0.00 | 0.00 | 0.00 | 23 | 1002.8 |